Time;durP1;ratioP1;P1;durP2;ratioP2;P2;SDS_P1;SDS_P2;PMS_P1;PMS_P2;Temp;Humidity;BMP_temperature;BMP_pressure;BME280_temperature;BME280_humidity;BME280_pressure;Samples;Min_cycle;Max_cycle;Signal;HPM_P1;HPM_P2
2021/09/03 00:00:59;;;;;;;9.07;4.28;;;;;;;16.81;58.73;97890.38;5042973;28;20035;-39
2021/09/03 00:03:25;;;;;;;9.23;5.05;;;;;;;16.99;58.06;97888.94;5044312;28;20025;-39
2021/09/03 00:05:50;;;;;;;8.82;4.68;;;;;;;16.94;58.19;97892.50;5048854;28;20511;-39
2021/09/03 00:08:15;;;;;;;6.50;4.28;;;;;;;16.88;58.46;97888.16;5044696;28;20037;-41
2021/09/03 00:10:41;;;;;;;6.57;4.30;;;;;;;16.95;58.08;97883.19;5043994;28;20074;-40
2021/09/03 00:13:06;;;;;;;6.78;4.25;;;;;;;17.05;57.92;97881.53;5044155;28;20057;-41
2021/09/03 00:15:31;;;;;;;6.53;4.10;;;;;;;17.21;57.63;97876.81;5045943;28;20087;-41
2021/09/03 00:17:59;;;;;;;7.38;4.35;;;;;;;17.42;56.80;97874.75;5044173;28;20098;-39
2021/09/03 00:20:24;;;;;;;8.13;4.40;;;;;;;17.15;57.22;97865.06;5038915;28;20048;-41
2021/09/03 00:22:50;;;;;;;6.53;4.10;;;;;;;17.07;57.72;97874.69;5037261;28;20496;-43
2021/09/03 00:25:15;;;;;;;8.10;5.15;;;;;;;16.71;58.69;97866.63;5044183;28;20036;-40
2021/09/03 00:27:41;;;;;;;6.22;4.30;;;;;;;16.59;59.10;97869.69;5043748;28;20112;-40
2021/09/03 00:30:07;;;;;;;7.75;4.20;;;;;;;16.51;59.02;97862.88;5041945;28;20094;-41
2021/09/03 00:32:32;;;;;;;6.18;3.53;;;;;;;16.53;59.15;97860.69;5044389;28;20024;-42
2021/09/03 00:34:58;;;;;;;7.35;4.03;;;;;;;16.56;59.19;97853.84;5044650;28;20024;-40
2021/09/03 00:37:23;;;;;;;8.30;4.55;;;;;;;16.63;58.89;97855.16;5042344;28;20025;-40
2021/09/03 00:39:48;;;;;;;7.95;5.22;;;;;;;16.61;58.89;97851.91;5042269;28;20017;-41
2021/09/03 00:42:15;;;;;;;6.90;4.38;;;;;;;16.52;59.14;97851.66;5049649;28;20040;-40
2021/09/03 00:44:40;;;;;;;5.97;4.20;;;;;;;16.38;59.30;97861.56;5039235;28;20024;-43
2021/09/03 00:47:06;;;;;;;6.45;4.13;;;;;;;16.31;59.39;97855.56;5047386;28;20036;-39
2021/09/03 00:49:31;;;;;;;6.75;4.13;;;;;;;16.40;59.38;97855.81;5041448;28;20404;-41
2021/09/03 00:51:58;;;;;;;6.72;4.15;;;;;;;16.64;58.57;97854.09;5044389;28;20033;-41
2021/09/03 00:54:23;;;;;;;6.78;3.95;;;;;;;16.86;57.89;97855.63;5043215;28;20025;-44
2021/09/03 00:56:49;;;;;;;7.72;4.35;;;;;;;16.97;57.39;97850.91;5042954;28;20397;-41
2021/09/03 00:59:14;;;;;;;6.40;4.10;;;;;;;16.94;57.62;97846.00;5044533;28;20029;-40
2021/09/03 01:01:39;;;;;;;7.75;4.65;;;;;;;16.95;57.55;97841.38;5043990;28;20029;-39
2021/09/03 01:04:05;;;;;;;8.38;4.45;;;;;;;16.98;57.35;97849.00;5043100;28;20544;-45
2021/09/03 01:06:30;;;;;;;8.05;4.43;;;;;;;17.13;56.92;97851.66;5054646;28;20480;-39
2021/09/03 01:08:56;;;;;;;6.03;4.05;;;;;;;17.10;56.72;97852.22;5064759;28;20028;-40
2021/09/03 01:11:21;;;;;;;6.38;4.25;;;;;;;16.90;57.56;97847.66;5063578;28;20029;-41
2021/09/03 01:13:47;;;;;;;5.85;4.10;;;;;;;16.76;57.92;97852.94;5050169;28;20027;-39
2021/09/03 01:16:12;;;;;;;7.07;4.05;;;;;;;16.45;58.47;97845.69;5043429;28;20108;-39
2021/09/03 01:18:38;;;;;;;6.35;4.30;;;;;;;16.42;59.01;97848.97;5044201;28;20029;-44
2021/09/03 01:21:03;;;;;;;6.40;4.10;;;;;;;16.62;58.29;97841.81;5042854;28;20021;-42
2021/09/03 01:23:29;;;;;;;6.45;4.10;;;;;;;16.72;57.91;97839.00;5043908;28;20033;-42
2021/09/03 01:25:54;;;;;;;6.45;4.30;;;;;;;16.77;57.88;97836.25;5039725;28;20029;-41
2021/09/03 01:28:20;;;;;;;6.63;4.30;;;;;;;16.62;58.31;97836.34;5041611;28;20029;-42
2021/09/03 01:30:45;;;;;;;6.30;4.25;;;;;;;16.59;58.24;97840.41;5042399;28;20021;-38
2021/09/03 01:33:11;;;;;;;7.65;4.43;;;;;;;16.46;58.55;97839.13;5038791;28;20025;-38
2021/09/03 01:35:36;;;;;;;6.55;4.35;;;;;;;16.46;58.44;97846.50;5043887;28;20499;-41
2021/09/03 01:38:05;;;;;;;7.47;3.90;;;;;;;16.45;58.34;97845.69;5044606;28;20775;-41
2021/09/03 01:40:31;;;;;;;6.88;4.15;;;;;;;16.44;58.30;97845.97;5043858;28;20040;-41
2021/09/03 01:42:56;;;;;;;6.70;4.32;;;;;;;16.38;58.17;97840.53;5064260;28;20028;-41
2021/09/03 01:45:21;;;;;;;8.15;4.35;;;;;;;16.30;58.76;97834.81;5049333;28;20369;-43
2021/09/03 01:47:47;;;;;;;7.80;4.53;;;;;;;16.15;59.30;97828.31;5039755;28;20759;-39
2021/09/03 01:50:12;;;;;;;7.35;4.43;;;;;;;16.23;58.87;97833.19;5047003;28;20025;-42
2021/09/03 01:52:37;;;;;;;8.02;4.25;;;;;;;16.28;58.92;97829.63;5046220;28;20036;-41
2021/09/03 01:55:04;;;;;;;6.38;4.10;;;;;;;16.25;58.73;97828.25;5047474;28;20028;-38
2021/09/03 01:57:29;;;;;;;7.30;4.82;;;;;;;16.21;58.98;97827.19;5046725;28;20021;-39
2021/09/03 01:59:54;;;;;;;6.38;4.20;;;;;;;16.33;58.39;97826.06;5047673;28;20051;-39
2021/09/03 02:02:20;;;;;;;8.30;4.55;;;;;;;16.48;58.21;97823.25;5047155;28;20132;-42
2021/09/03 02:04:45;;;;;;;8.88;4.40;;;;;;;16.37;58.38;97824.41;5044647;28;20052;-39
2021/09/03 02:07:10;;;;;;;6.30;3.83;;;;;;;16.22;58.77;97822.53;5066117;28;20553;-39
2021/09/03 02:09:36;;;;;;;6.53;3.95;;;;;;;16.25;58.65;97828.25;5066384;28;20035;-41
2021/09/03 02:12:01;;;;;;;7.60;4.20;;;;;;;16.55;58.03;97820.22;5049202;28;20052;-39
2021/09/03 02:14:26;;;;;;;6.28;3.97;;;;;;;16.89;56.94;97819.50;5047626;28;20020;-38
2021/09/03 02:16:52;;;;;;;6.57;4.18;;;;;;;17.08;56.29;97823.53;5045793;28;20075;-38
2021/09/03 02:19:17;;;;;;;6.05;3.67;;;;;;;16.91;56.44;97824.69;5046981;28;20109;-39
2021/09/03 02:21:43;;;;;;;6.43;3.90;;;;;;;16.42;57.73;97818.09;5042398;28;20032;-38
2021/09/03 02:24:08;;;;;;;6.90;4.47;;;;;;;16.02;58.55;97813.28;5047020;28;20484;-37
2021/09/03 02:26:33;;;;;;;5.78;3.83;;;;;;;16.07;58.92;97816.00;5046607;28;20032;-37
2021/09/03 02:28:59;;;;;;;6.50;3.90;;;;;;;16.28;58.77;97820.63;5046101;28;20029;-38
2021/09/03 02:31:24;;;;;;;5.22;3.78;;;;;;;16.62;57.63;97809.81;5046531;28;20774;-38
2021/09/03 02:33:50;;;;;;;7.53;4.32;;;;;;;16.91;56.70;97813.75;5045532;28;20541;-39
2021/09/03 02:36:15;;;;;;;6.65;4.15;;;;;;;16.87;56.66;97809.94;5047050;28;20032;-41
2021/09/03 02:38:43;;;;;;;6.80;3.88;;;;;;;16.96;56.30;97810.16;5046773;28;20025;-38
2021/09/03 02:41:08;;;;;;;6.30;4.10;;;;;;;16.55;57.31;97814.75;5051483;28;20617;-40
2021/09/03 02:43:33;;;;;;;7.85;4.28;;;;;;;16.15;58.29;97811.91;5052894;28;20032;-40
2021/09/03 02:45:59;;;;;;;5.95;3.97;;;;;;;16.03;58.77;97811.41;5037338;28;20503;-40
2021/09/03 02:48:24;;;;;;;7.80;4.32;;;;;;;15.98;58.80;97814.94;5043722;28;20739;-40
2021/09/03 02:50:49;;;;;;;7.82;4.10;;;;;;;16.23;58.33;97819.53;5045711;28;20107;-39
2021/09/03 02:53:15;;;;;;;6.38;4.13;;;;;;;16.62;57.33;97817.19;5045250;28;20028;-38
2021/09/03 02:55:40;;;;;;;6.45;4.50;;;;;;;16.84;56.61;97814.06;5046087;28;20025;-39
2021/09/03 02:58:05;;;;;;;5.63;3.75;;;;;;;16.94;56.72;97806.88;5044759;28;20033;-40
2021/09/03 03:00:31;;;;;;;7.78;4.32;;;;;;;16.97;56.43;97804.41;5046072;28;20035;-39
2021/09/03 03:02:58;;;;;;;6.78;3.55;;;;;;;16.99;56.41;97794.00;5045234;28;20033;-39
2021/09/03 03:05:23;;;;;;;7.65;4.05;;;;;;;17.10;56.00;97799.44;5048827;28;20016;-41
2021/09/03 03:07:49;;;;;;;6.22;4.15;;;;;;;16.62;57.28;97787.94;5065801;28;20029;-42
2021/09/03 03:10:14;;;;;;;10.15;4.43;;;;;;;16.23;57.83;97786.75;5063572;28;20490;-39
2021/09/03 03:12:40;;;;;;;5.72;4.15;;;;;;;16.13;58.00;97781.31;5045619;28;20024;-41
2021/09/03 03:15:06;;;;;;;7.25;4.40;;;;;;;15.97;58.67;97778.66;5046611;28;20021;-38
2021/09/03 03:17:32;;;;;;;6.32;4.45;;;;;;;15.99;58.50;97787.38;5042957;28;20029;-40
2021/09/03 03:19:57;;;;;;;7.47;4.30;;;;;;;15.90;58.09;97783.53;5035279;28;20060;-39
2021/09/03 03:22:22;;;;;;;8.23;4.68;;;;;;;15.79;59.23;97782.75;5043496;28;20537;-37
2021/09/03 03:24:48;;;;;;;5.75;3.58;;;;;;;15.82;58.77;97789.56;5045538;28;20025;-41
2021/09/03 03:27:13;;;;;;;6.20;3.80;;;;;;;16.09;58.55;97783.78;5044494;28;20434;-41
2021/09/03 03:29:39;;;;;;;7.03;3.83;;;;;;;16.50;57.39;97785.53;5034190;28;20604;-39
2021/09/03 03:32:04;;;;;;;5.85;3.72;;;;;;;16.82;56.31;97783.47;5024621;28;20377;-39
2021/09/03 03:34:30;;;;;;;5.97;3.97;;;;;;;16.92;55.85;97782.59;5041709;28;20024;-39
2021/09/03 03:36:55;;;;;;;6.50;3.90;;;;;;;16.76;55.87;97781.84;5044430;28;20033;-39
2021/09/03 03:39:20;;;;;;;5.97;4.13;;;;;;;16.49;56.59;97780.34;5042400;28;20027;-39
2021/09/03 03:41:46;;;;;;;6.82;4.20;;;;;;;16.14;57.61;97777.47;5045086;28;20104;-39
2021/09/03 03:44:11;;;;;;;5.60;3.53;;;;;;;15.73;57.96;97775.63;5044246;28;20103;-38
2021/09/03 03:46:37;;;;;;;7.47;4.57;;;;;;;15.72;58.43;97774.84;5045913;28;20032;-38
2021/09/03 03:49:02;;;;;;;7.78;4.50;;;;;;;15.67;58.25;97784.94;5045603;28;20079;-38
2021/09/03 03:51:28;;;;;;;6.32;4.03;;;;;;;15.55;58.37;97774.31;5043662;28;20107;-43
2021/09/03 03:53:53;;;;;;;5.93;4.22;;;;;;;15.56;58.74;97776.75;5044557;28;20025;-41
2021/09/03 03:56:19;;;;;;;6.85;4.30;;;;;;;15.46;58.65;97774.88;5043558;28;20024;-39
2021/09/03 03:58:44;;;;;;;7.63;4.38;;;;;;;15.35;59.71;97773.22;5045133;28;20099;-44
2021/09/03 04:01:10;;;;;;;8.45;4.07;;;;;;;15.50;59.07;97774.31;5042385;28;20025;-39
2021/09/03 04:03:35;;;;;;;6.82;4.60;;;;;;;15.51;59.36;97768.56;5044014;28;20091;-40
2021/09/03 04:06:00;;;;;;;8.40;4.70;;;;;;;15.66;58.86;97767.75;5052953;28;20075;-42
2021/09/03 04:08:26;;;;;;;7.05;4.18;;;;;;;15.55;59.21;97769.66;5064481;28;20060;-39
2021/09/03 04:10:51;;;;;;;5.97;3.88;;;;;;;15.60;58.74;97774.31;5053531;28;20118;-39
2021/09/03 04:13:16;;;;;;;6.78;4.50;;;;;;;15.55;58.75;97772.41;5044595;28;20044;-41
2021/09/03 04:15:42;;;;;;;7.18;4.78;;;;;;;15.44;58.53;97771.59;5044393;28;20028;-41
2021/09/03 04:18:07;;;;;;;8.57;4.70;;;;;;;15.28;59.02;97764.50;5034350;28;20489;-39
2021/09/03 04:20:32;;;;;;;6.95;3.88;;;;;;;15.92;57.86;97767.69;5027820;28;20025;-39
2021/09/03 04:22:58;;;;;;;6.50;4.18;;;;;;;16.43;55.93;97760.41;5043882;28;20025;-38
2021/09/03 04:25:23;;;;;;;9.60;4.45;;;;;;;16.30;56.01;97767.31;5041533;28;20504;-40
2021/09/03 04:27:48;;;;;;;8.68;4.35;;;;;;;16.00;56.70;97766.34;5043232;28;20781;-39
2021/09/03 04:30:14;;;;;;;7.22;4.50;;;;;;;15.90;57.12;97772.63;5042661;28;20033;-39
2021/09/03 04:32:39;;;;;;;6.47;3.80;;;;;;;15.84;57.31;97773.72;5040222;28;20031;-39
2021/09/03 04:35:06;;;;;;;7.35;4.25;;;;;;;16.22;56.53;97776.09;5041558;28;20031;-40
2021/09/03 04:37:31;;;;;;;8.80;4.28;;;;;;;16.83;54.80;97776.88;5040960;28;20489;-40
2021/09/03 04:39:57;;;;;;;6.20;3.90;;;;;;;17.11;53.83;97780.00;5027873;28;20096;-40
2021/09/03 04:42:22;;;;;;;7.72;4.30;;;;;;;17.20;52.79;97782.94;5023776;28;20026;-38
2021/09/03 04:44:47;;;;;;;10.65;4.15;;;;;;;17.15;52.65;97785.72;5027830;28;20052;-39
2021/09/03 04:47:13;;;;;;;6.28;3.80;;;;;;;17.11;52.58;97781.94;5042102;28;20646;-41
2021/09/03 04:49:38;;;;;;;6.68;3.88;;;;;;;17.14;52.30;97786.84;5048780;28;20052;-38
2021/09/03 04:52:04;;;;;;;6.75;4.10;;;;;;;16.87;53.13;97782.59;5028852;28;20543;-39
2021/09/03 04:54:29;;;;;;;7.25;4.18;;;;;;;16.94;52.76;97783.09;5041826;28;20025;-38
2021/09/03 04:56:55;;;;;;;6.53;3.83;;;;;;;16.91;52.99;97794.59;5039988;28;20020;-38
2021/09/03 04:59:20;;;;;;;6.47;3.90;;;;;;;17.08;52.52;97791.53;5030216;28;20054;-40
2021/09/03 05:01:45;;;;;;;8.30;3.88;;;;;;;17.08;52.52;97796.16;5037989;28;20025;-38
2021/09/03 05:04:11;;;;;;;7.30;4.43;;;;;;;17.11;52.16;97790.13;5040289;28;20035;-39
2021/09/03 05:06:36;;;;;;;6.32;3.80;;;;;;;17.19;52.28;97794.16;5053985;28;20127;-40
2021/09/03 05:09:02;;;;;;;6.38;4.13;;;;;;;17.04;52.49;97790.44;5029180;28;20127;-40
2021/09/03 05:11:27;;;;;;;6.97;3.85;;;;;;;17.09;52.79;97792.31;5040780;28;20021;-41
2021/09/03 05:13:52;;;;;;;9.18;4.07;;;;;;;17.24;52.23;97788.66;5037386;28;20090;-39
2021/09/03 05:16:18;;;;;;;7.97;4.43;;;;;;;16.89;52.83;97792.13;5041849;28;20025;-40
2021/09/03 05:18:43;;;;;;;6.28;4.00;;;;;;;16.61;53.93;97790.94;5036456;28;20029;-40
2021/09/03 05:21:09;;;;;;;7.40;4.55;;;;;;;16.48;54.10;97793.19;5037517;28;20711;-42
2021/09/03 05:23:35;;;;;;;8.02;4.97;;;;;;;16.50;54.23;97787.44;5038516;28;20028;-38
2021/09/03 05:26:00;;;;;;;7.68;4.30;;;;;;;16.76;53.33;97787.31;5036679;28;20032;-39
2021/09/03 05:28:27;;;;;;;6.00;3.97;;;;;;;16.79;52.53;97784.00;5036917;28;20025;-39
2021/09/03 05:30:53;;;;;;;6.57;3.53;;;;;;;16.80;52.75;97784.84;5025159;28;20141;-40
2021/09/03 05:33:18;;;;;;;9.55;4.38;;;;;;;16.88;52.49;97781.50;5031439;28;20112;-39
2021/09/03 05:35:44;;;;;;;12.18;4.25;;;;;;;17.06;52.04;97788.25;5036765;28;20525;-40
2021/09/03 05:38:09;;;;;;;6.13;4.07;;;;;;;16.99;51.98;97787.72;5046204;28;20868;-40
2021/09/03 05:40:35;;;;;;;7.60;4.18;;;;;;;17.03;51.95;97786.06;5047370;28;20158;-38
2021/09/03 05:43:01;;;;;;;8.38;4.30;;;;;;;17.30;51.11;97798.47;5031220;28;20028;-38
2021/09/03 05:45:27;;;;;;;8.80;4.72;;;;;;;17.37;51.22;97784.47;5045800;28;20029;-37
2021/09/03 05:47:52;;;;;;;7.63;4.35;;;;;;;17.24;51.75;97784.00;5040878;28;20036;-38
2021/09/03 05:50:18;;;;;;;7.53;4.65;;;;;;;17.06;52.35;97790.97;5033724;28;20033;-38
2021/09/03 05:52:44;;;;;;;7.85;4.78;;;;;;;17.06;52.74;97787.44;5048257;28;20107;-39
2021/09/03 05:55:09;;;;;;;7.03;4.18;;;;;;;17.08;52.79;97788.78;5033425;28;20032;-41
2021/09/03 05:57:35;;;;;;;8.35;4.18;;;;;;;17.10;52.86;97789.31;5042725;28;20221;-40
2021/09/03 06:00:00;;;;;;;6.93;4.20;;;;;;;17.24;52.87;97786.75;5041688;28;20504;-38
2021/09/03 06:02:26;;;;;;;7.95;4.38;;;;;;;17.22;53.08;97790.88;5024885;28;20029;-39
2021/09/03 06:04:51;;;;;;;6.25;4.35;;;;;;;17.27;52.94;97794.38;5025181;28;20500;-38
2021/09/03 06:07:17;;;;;;;7.40;4.47;;;;;;;16.91;54.42;97789.13;5033416;28;20066;-38
2021/09/03 06:09:42;;;;;;;8.80;5.03;;;;;;;16.80;55.10;97787.56;5031618;28;20037;-39
2021/09/03 06:12:08;;;;;;;6.10;4.68;;;;;;;17.10;54.56;97783.03;5027360;28;20055;-38
2021/09/03 06:14:33;;;;;;;7.15;3.97;;;;;;;17.18;54.23;97774.22;5046670;28;20036;-40
2021/09/03 06:16:59;;;;;;;11.18;4.45;;;;;;;17.24;54.58;97769.50;5034918;28;20527;-38
2021/09/03 06:19:24;;;;;;;7.40;4.57;;;;;;;16.88;55.83;97773.31;5027081;28;20037;-38
2021/09/03 06:21:49;;;;;;;6.72;4.38;;;;;;;17.04;55.55;97776.75;5040986;28;20131;-38
2021/09/03 06:24:30;;;;;;;7.20;4.18;;;;;;;17.21;55.43;97781.03;5045332;28;20124;-37
2021/09/03 06:27:14;;;;;;;7.53;4.05;;;;;;;17.00;56.28;97773.75;5046871;28;20529;-39
2021/09/03 06:29:42;;;;;;;6.88;4.03;;;;;;;17.14;56.00;97779.44;5039369;28;20028;-39
2021/09/03 06:32:12;;;;;;;8.07;4.30;;;;;;;17.29;55.63;97778.50;5028948;28;20033;-38
2021/09/03 06:34:40;;;;;;;7.00;4.30;;;;;;;17.35;55.65;97782.00;5031967;28;20054;-41
2021/09/03 06:37:06;;;;;;;5.72;3.42;;;;;;;17.41;55.53;97774.56;5030657;28;20025;-41
2021/09/03 06:39:32;;;;;;;6.85;4.40;;;;;;;17.61;55.02;97776.31;5044676;28;20036;-41
2021/09/03 06:41:57;;;;;;;5.95;3.92;;;;;;;17.71;54.76;97775.38;5049584;28;20139;-39
2021/09/03 06:44:23;;;;;;;7.63;3.75;;;;;;;17.89;54.11;97778.50;5043844;28;20721;-43
2021/09/03 06:46:48;;;;;;;7.20;3.95;;;;;;;17.77;54.61;97778.91;5044255;28;20112;-39
2021/09/03 06:49:13;;;;;;;9.45;4.22;;;;;;;17.76;54.85;97780.00;5035869;28;20061;-42
2021/09/03 06:51:39;;;;;;;7.75;4.00;;;;;;;17.85;54.58;97778.28;5043068;28;20032;-39
2021/09/03 06:54:05;;;;;;;7.88;4.78;;;;;;;17.58;56.01;97776.88;5036784;28;20113;-39
2021/09/03 06:56:30;;;;;;;10.10;4.65;;;;;;;17.76;55.29;97777.28;5043686;28;20111;-39
2021/09/03 06:58:55;;;;;;;9.80;4.90;;;;;;;17.67;55.99;97777.06;5040656;28;20045;-40
2021/09/03 07:01:21;;;;;;;10.77;4.45;;;;;;;17.70;56.01;97781.16;5047229;28;20031;-40
2021/09/03 07:03:46;;;;;;;8.00;4.65;;;;;;;17.85;55.64;97778.28;5049831;28;20032;-39
2021/09/03 07:06:11;;;;;;;6.75;4.22;;;;;;;18.03;55.13;97778.63;5041057;28;20035;-41
2021/09/03 07:08:37;;;;;;;7.70;4.07;;;;;;;18.01;55.41;97783.56;5042642;28;20100;-39
2021/09/03 07:11:02;;;;;;;6.93;4.32;;;;;;;18.08;55.29;97792.28;5024459;28;20455;-39
2021/09/03 07:13:27;;;;;;;7.28;4.00;;;;;;;18.06;55.31;97780.78;5030890;28;20026;-42
2021/09/03 07:15:53;;;;;;;6.88;4.50;;;;;;;18.02;55.71;97782.47;5029140;28;20025;-40
2021/09/03 07:18:18;;;;;;;7.70;4.72;;;;;;;18.00;56.04;97785.50;5026865;28;20456;-40
2021/09/03 07:20:43;;;;;;;9.30;4.60;;;;;;;17.83;56.79;97788.69;5040146;28;20391;-41
2021/09/03 07:23:09;;;;;;;9.45;4.63;;;;;;;17.84;56.87;97786.78;5029114;28;20029;-39
2021/09/03 07:25:34;;;;;;;10.10;4.72;;;;;;;17.89;56.71;97784.81;5042536;28;20131;-39
2021/09/03 07:27:59;;;;;;;7.50;4.53;;;;;;;18.08;56.40;97781.34;5036515;28;20052;-41
2021/09/03 07:30:25;;;;;;;10.23;4.30;;;;;;;18.06;56.75;97778.06;5031414;28;20121;-38
2021/09/03 07:32:50;;;;;;;8.98;4.57;;;;;;;18.00;56.78;97780.03;5030134;28;20072;-40
2021/09/03 07:35:16;;;;;;;11.05;5.35;;;;;;;18.02;56.59;97777.00;5039190;28;20032;-38
2021/09/03 07:37:42;;;;;;;7.60;4.25;;;;;;;18.11;56.49;97780.75;5050008;28;20048;-39
2021/09/03 07:40:08;;;;;;;7.38;5.05;;;;;;;18.04;56.60;97783.00;5038850;28;20116;-39
2021/09/03 07:42:34;;;;;;;8.05;4.85;;;;;;;18.06;56.80;97789.00;5053002;28;20025;-42
2021/09/03 07:45:00;;;;;;;6.90;3.92;;;;;;;18.14;56.45;97785.63;5047776;28;20025;-39
2021/09/03 07:47:26;;;;;;;8.65;4.57;;;;;;;18.12;56.66;97781.56;5036602;28;20036;-40
2021/09/03 07:49:52;;;;;;;6.55;4.72;;;;;;;18.09;56.91;97773.94;5054632;28;20044;-39
2021/09/03 07:52:17;;;;;;;7.57;4.80;;;;;;;18.07;56.79;97775.00;5028904;28;20071;-39
2021/09/03 07:54:44;;;;;;;8.15;4.18;;;;;;;18.17;56.43;97776.03;5041473;28;20529;-41
2021/09/03 07:57:10;;;;;;;7.78;4.80;;;;;;;18.19;56.48;97771.91;5036727;28;20102;-39
2021/09/03 07:59:35;;;;;;;9.70;4.75;;;;;;;18.27;56.24;97769.59;5024734;28;20866;-40
2021/09/03 08:02:00;;;;;;;7.38;4.70;;;;;;;18.27;56.19;97775.91;5032799;28;20737;-39
2021/09/03 08:04:26;;;;;;;6.43;4.38;;;;;;;18.20;56.47;97770.78;5036794;28;20583;-39
2021/09/03 08:06:51;;;;;;;6.95;4.32;;;;;;;18.24;56.33;97759.25;5022453;28;20037;-39
2021/09/03 08:09:16;;;;;;;7.18;4.57;;;;;;;18.27;56.10;97761.38;5037693;28;20848;-41
2021/09/03 08:11:42;;;;;;;7.20;4.50;;;;;;;18.28;56.23;97766.56;5022620;28;20404;-41
2021/09/03 08:14:07;;;;;;;7.07;5.00;;;;;;;18.28;56.19;97752.88;5026141;28;20021;-40
2021/09/03 08:16:32;;;;;;;5.97;3.80;;;;;;;18.27;56.26;97755.88;5034293;28;20442;-39
2021/09/03 08:18:58;;;;;;;6.80;4.85;;;;;;;18.29;56.17;97754.50;5025092;28;20411;-39
2021/09/03 08:21:24;;;;;;;7.32;4.35;;;;;;;18.30;55.89;97761.63;5038055;28;20137;-40
2021/09/03 08:23:49;;;;;;;9.35;4.57;;;;;;;18.35;56.02;97766.22;5042470;28;20020;-39
2021/09/03 08:26:15;;;;;;;6.97;4.40;;;;;;;18.37;56.04;97766.75;5043265;28;20036;-39
2021/09/03 08:28:40;;;;;;;7.75;4.68;;;;;;;18.36;56.08;97761.56;5040530;28;20091;-41
2021/09/03 08:31:05;;;;;;;7.40;4.13;;;;;;;18.35;56.09;97763.47;5027187;28;20032;-39
2021/09/03 08:33:31;;;;;;;6.20;4.25;;;;;;;18.35;56.10;97768.16;5044431;28;20079;-39
2021/09/03 08:35:56;;;;;;;6.75;4.20;;;;;;;18.37;55.99;97764.00;5043770;28;20032;-40
2021/09/03 08:38:22;;;;;;;6.68;4.32;;;;;;;18.37;56.06;97764.00;5042580;28;20036;-39
2021/09/03 08:40:48;;;;;;;6.30;4.05;;;;;;;18.38;56.13;97757.41;5040731;28;20043;-40
2021/09/03 08:43:18;;;;;;;7.78;4.50;;;;;;;18.42;56.01;97768.59;5046392;28;20036;-39
2021/09/03 08:45:45;;;;;;;6.85;4.15;;;;;;;18.41;56.13;97762.31;5024491;28;20512;-39
2021/09/03 08:48:10;;;;;;;7.25;4.40;;;;;;;18.40;56.05;97762.59;5035081;28;20032;-42
2021/09/03 08:50:36;;;;;;;7.05;4.25;;;;;;;18.40;56.14;97765.34;5022251;28;20380;-40
2021/09/03 08:53:01;;;;;;;7.68;4.93;;;;;;;18.42;56.19;97763.09;5034889;28;20033;-41
2021/09/03 08:55:26;;;;;;;7.13;4.20;;;;;;;18.41;56.13;97772.44;5029372;28;20268;-40
2021/09/03 08:57:52;;;;;;;7.25;4.50;;;;;;;18.41;56.19;97765.06;5052957;28;20029;-39
2021/09/03 09:00:22;;;;;;;6.65;4.18;;;;;;;18.44;56.16;97767.22;5046594;28;20052;-39
2021/09/03 09:03:03;;;;;;;8.57;4.32;;;;;;;18.44;56.25;97769.13;5032561;28;20083;-39
2021/09/03 09:05:43;;;;;;;8.70;4.03;;;;;;;18.43;56.20;97767.50;5044235;28;20025;-39
2021/09/03 09:08:09;;;;;;;8.02;4.20;;;;;;;18.44;56.13;97769.13;5028578;28;20022;-41
2021/09/03 09:10:36;;;;;;;6.97;4.20;;;;;;;18.41;56.31;97766.97;5028051;28;20480;-45
2021/09/03 09:13:15;;;;;;;6.65;4.10;;;;;;;18.40;56.33;97768.06;5045802;28;20104;-39
2021/09/03 09:15:40;;;;;;;6.78;4.32;;;;;;;18.42;56.39;97768.59;5046857;28;20499;-40
2021/09/03 09:18:05;;;;;;;7.22;4.72;;;;;;;18.43;56.48;97775.72;5045205;28;20511;-39
2021/09/03 09:20:33;;;;;;;8.18;4.47;;;;;;;18.44;56.26;97777.34;5046985;28;20533;-42
2021/09/03 09:23:02;;;;;;;8.90;4.47;;;;;;;18.46;56.20;97775.94;5047379;28;20032;-38
2021/09/03 09:25:35;;;;;;;8.65;5.18;;;;;;;18.42;56.39;97774.06;5047018;28;20037;-42
2021/09/03 09:28:21;;;;;;;6.80;4.70;;;;;;;18.45;56.32;97766.09;5047562;28;20021;-39
2021/09/03 09:30:48;;;;;;;8.80;4.43;;;;;;;18.43;56.38;97762.81;5040363;28;20028;-40
2021/09/03 09:33:23;;;;;;;6.78;4.35;;;;;;;18.47;56.35;97760.31;5026602;28;20653;-40
2021/09/03 09:35:57;;;;;;;7.72;4.80;;;;;;;18.43;56.44;97762.03;5027181;28;20467;-40
2021/09/03 09:38:25;;;;;;;6.43;4.60;;;;;;;18.43;56.36;97757.34;5027457;28;20696;-42
2021/09/03 09:40:54;;;;;;;7.68;4.75;;;;;;;18.45;56.31;97757.03;5033084;28;20064;-39
2021/09/03 09:43:26;;;;;;;8.25;4.70;;;;;;;18.46;56.46;97750.44;5048636;28;20032;-39
2021/09/03 09:46:07;;;;;;;8.85;4.97;;;;;;;18.48;56.19;97748.22;5047637;28;20104;-41
2021/09/03 09:48:32;;;;;;;6.93;4.80;;;;;;;18.45;56.33;97752.38;5047356;28;20074;-44
2021/09/03 09:50:57;;;;;;;8.98;4.78;;;;;;;18.50;56.21;97745.19;5047275;28;20029;-39
2021/09/03 09:53:23;;;;;;;9.05;4.38;;;;;;;18.52;56.22;97741.06;5047345;28;20036;-40
2021/09/03 09:55:48;;;;;;;6.53;4.32;;;;;;;18.53;56.24;97734.44;5047334;28;20056;-40
2021/09/03 09:58:15;;;;;;;8.23;4.22;;;;;;;18.55;55.96;97739.66;5055444;28;20170;-40
2021/09/03 10:00:41;;;;;;;7.53;4.65;;;;;;;18.57;56.25;97735.50;5048200;28;20036;-40
2021/09/03 10:03:07;;;;;;;8.65;5.00;;;;;;;18.63;56.14;97740.91;5061299;28;20025;-41
2021/09/03 10:05:32;;;;;;;7.38;4.53;;;;;;;18.63;55.92;97738.16;5054930;28;20032;-42
2021/09/03 10:07:58;;;;;;;7.18;5.00;;;;;;;18.64;56.19;97739.81;5061578;28;20077;-40
2021/09/03 10:10:24;;;;;;;8.07;5.03;;;;;;;18.62;56.20;97728.31;5064296;28;20040;-39
2021/09/03 10:12:49;;;;;;;8.43;5.10;;;;;;;18.65;56.05;97739.50;5057118;28;20400;-41
2021/09/03 10:15:17;;;;;;;8.75;4.65;;;;;;;18.69;55.87;97728.75;5038129;28;20545;-42
2021/09/03 10:17:42;;;;;;;9.45;5.15;;;;;;;18.65;55.92;97728.50;5043697;28;20028;-39
2021/09/03 10:20:09;;;;;;;7.18;4.28;;;;;;;18.67;56.01;97736.44;5053801;28;20558;-39
2021/09/03 10:22:42;;;;;;;6.43;4.30;;;;;;;18.68;55.94;97729.84;5036437;28;20100;-39
2021/09/03 10:25:09;;;;;;;8.88;4.25;;;;;;;18.65;56.02;97730.47;5046683;28;20033;-38
2021/09/03 10:27:34;;;;;;;8.43;4.60;;;;;;;18.72;55.81;97733.63;5045438;28;20491;-39
2021/09/03 10:30:10;;;;;;;8.65;5.03;;;;;;;18.71;55.72;97734.75;5047003;28;20055;-39
2021/09/03 10:32:36;;;;;;;10.85;4.80;;;;;;;18.69;55.89;97728.75;5046083;28;20028;-40
2021/09/03 10:35:03;;;;;;;6.95;4.72;;;;;;;18.69;55.88;97732.31;5046570;28;20029;-39
2021/09/03 10:37:31;;;;;;;9.20;4.88;;;;;;;18.72;55.82;97725.41;5045594;28;20068;-39
2021/09/03 10:40:04;;;;;;;6.90;4.53;;;;;;;18.75;55.83;97722.06;5045962;28;20060;-40
2021/09/03 10:42:43;;;;;;;7.65;4.72;;;;;;;18.75;55.98;97722.06;5046439;28;20021;-39
2021/09/03 10:45:18;;;;;;;7.38;4.75;;;;;;;18.70;55.94;97720.25;5045642;28;20124;-41
2021/09/03 10:47:46;;;;;;;6.97;4.47;;;;;;;18.69;55.96;97717.78;5034017;28;20056;-41
2021/09/03 10:50:17;;;;;;;7.53;4.10;;;;;;;18.66;56.14;97713.72;5025992;28;20040;-41
2021/09/03 10:53:10;;;;;;;7.45;4.90;;;;;;;18.69;55.90;97704.88;5044300;28;20029;-39
2021/09/03 10:55:51;;;;;;;8.25;4.60;;;;;;;18.72;55.97;97709.78;5040896;28;20045;-39
2021/09/03 10:58:28;;;;;;;7.38;4.75;;;;;;;18.70;55.98;97714.75;5036926;28;20884;-43
2021/09/03 11:01:27;;;;;;;7.15;4.90;;;;;;;18.72;56.03;97709.78;5043337;28;20484;-39
2021/09/03 11:03:55;;;;;;;7.13;5.10;;;;;;;18.72;56.16;97700.72;5023774;28;20118;-42
2021/09/03 11:06:23;;;;;;;7.65;4.45;;;;;;;18.77;55.98;97702.56;5041350;28;20025;-39
2021/09/03 11:08:50;;;;;;;6.18;4.20;;;;;;;18.74;56.12;97709.47;5037225;28;20057;-41
2021/09/03 11:11:27;;;;;;;7.47;4.80;;;;;;;18.74;55.94;97709.47;5028218;28;20468;-39
2021/09/03 11:13:58;;;;;;;8.13;5.28;;;;;;;18.75;55.99;97707.56;5040005;28;20028;-40
2021/09/03 11:16:33;;;;;;;10.70;6.13;;;;;;;18.70;56.29;97694.72;5046405;28;20071;-40
2021/09/03 11:19:03;;;;;;;6.63;4.75;;;;;;;18.68;56.35;97700.50;5044748;28;20107;-41
2021/09/03 11:21:40;;;;;;;8.20;4.90;;;;;;;18.71;56.32;97697.19;5044623;28;20063;-40
2021/09/03 11:24:07;;;;;;;6.30;4.38;;;;;;;18.72;56.22;97693.31;5045021;28;20028;-39
2021/09/03 11:26:34;;;;;;;9.70;4.93;;;;;;;18.72;56.40;97687.84;5042773;28;20026;-42
2021/09/03 11:29:05;;;;;;;8.30;4.63;;;;;;;18.70;56.31;97689.25;5034938;28;20021;-40
2021/09/03 11:31:31;;;;;;;8.68;4.97;;;;;;;18.70;56.19;97686.50;5050109;28;20157;-40